Time;durP1;ratioP1;P1;durP2;ratioP2;P2;SDS_P1;SDS_P2;PMS_P1;PMS_P2;Temp;Humidity;BMP_temperature;BMP_pressure;BME280_temperature;BME280_humidity;BME280_pressure;Samples;Min_cycle;Max_cycle;Signal;HPM_P1;HPM_P2
2021/07/27 00:00:32;;;;;;;14.65;10.20;;;;;;;;;;5054225;28;20033;-76
2021/07/27 00:03:02;;;;;;;14.65;10.45;;;;;;;;;;5048273;28;20599;-77
2021/07/27 00:05:28;;;;;;;13.73;10.00;;;;;;;;;;5034238;28;20037;-77
2021/07/27 00:07:54;;;;;;;15.30;9.85;;;;;;;;;;5034346;28;20336;-74
2021/07/27 00:10:21;;;;;;;15.40;10.02;;;;;;;;;;5034083;28;20048;-74
2021/07/27 00:12:47;;;;;;;16.48;10.65;;;;;;;;;;5034000;28;20099;-76
2021/07/27 00:15:13;;;;;;;14.23;9.38;;;;;;;;;;5034072;28;20033;-77
2021/07/27 00:17:39;;;;;;;14.05;9.32;;;;;;;;;;5034250;28;20064;-77
2021/07/27 00:20:06;;;;;;;14.35;10.70;;;;;;;;;;5033992;28;20057;-76
2021/07/27 00:22:32;;;;;;;15.07;9.55;;;;;;;;;;5034046;28;20028;-75
2021/07/27 00:24:59;;;;;;;20.00;10.35;;;;;;;;;;5033218;28;20033;-75
2021/07/27 00:27:25;;;;;;;14.15;9.60;;;;;;;;;;5033883;28;20017;-75
2021/07/27 00:29:51;;;;;;;13.43;9.98;;;;;;;;;;5033911;28;20053;-73
2021/07/27 00:32:17;;;;;;;13.77;9.80;;;;;;;;;;5033789;28;20026;-76
2021/07/27 00:34:43;;;;;;;14.43;9.35;;;;;;;;;;5034013;28;20369;-75
2021/07/27 00:37:20;;;;;;;14.43;9.38;;;;;;;;;;5033531;28;20025;-75
2021/07/27 00:39:46;;;;;;;12.32;9.35;;;;;;;;;;5015698;28;20032;-74
2021/07/27 00:42:14;;;;;;;12.68;9.43;;;;;;;;;;5033600;28;20018;-75
2021/07/27 00:44:41;;;;;;;14.80;9.18;;;;;;;;;;5033488;28;20029;-75
2021/07/27 00:47:07;;;;;;;15.30;10.15;;;;;;;;;;5033644;28;20025;-76
2021/07/27 00:49:33;;;;;;;14.00;9.18;;;;;;;;;;5033247;28;20025;-75
2021/07/27 00:51:59;;;;;;;11.95;8.70;;;;;;;;;;5033486;28;20029;-76
2021/07/27 00:54:25;;;;;;;13.07;9.10;;;;;;;;;;5033421;28;20036;-76
2021/07/27 00:56:51;;;;;;;12.95;9.15;;;;;;;;;;5033336;28;20021;-75
2021/07/27 00:59:17;;;;;;;14.07;9.80;;;;;;;;;;5033366;28;20025;-76
2021/07/27 01:01:44;;;;;;;16.73;9.50;;;;;;;;;;5033057;28;20032;-75
2021/07/27 01:04:10;;;;;;;14.25;9.98;;;;;;;;;;5048558;28;20036;-75
2021/07/27 01:06:36;;;;;;;14.57;9.27;;;;;;;;;;5053152;28;20029;-75
2021/07/27 01:09:02;;;;;;;13.05;9.10;;;;;;;;;;5053020;28;20045;-74
2021/07/27 01:11:28;;;;;;;13.30;8.73;;;;;;;;;;5053148;28;20096;-76
2021/07/27 01:13:54;;;;;;;14.07;9.27;;;;;;;;;;5052797;28;20025;-73
2021/07/27 01:16:25;;;;;;;13.13;9.00;;;;;;;;;;5053083;28;20048;-75
2021/07/27 01:19:03;;;;;;;12.68;9.02;;;;;;;;;;5053163;28;20036;-75
2021/07/27 01:38:14;;;;;;;12.68;7.72;;;;;;;;;;5057072;28;20122;-75
2021/07/27 01:42:03;;;;;;;10.52;7.97;;;;;;;;;;5057042;28;20025;-75
2021/07/27 01:43:30;;;;;;;13.02;7.68;;;;;;;;;;5056047;28;20060;-75
2021/07/27 01:45:56;;;;;;;11.50;8.02;;;;;;;;;;5057163;28;20024;-75
2021/07/27 01:48:25;;;;;;;12.18;8.13;;;;;;;;;;5056770;28;20473;-74
2021/07/27 01:50:51;;;;;;;11.07;7.68;;;;;;;;;;5056629;28;20017;-75
2021/07/27 01:53:38;;;;;;;11.90;8.13;;;;;;;;;;5056830;28;20031;-74
2021/07/27 01:56:04;;;;;;;12.13;8.63;;;;;;;;;;5056772;28;20032;-76
2021/07/27 01:58:30;;;;;;;11.57;7.88;;;;;;;;;;5056615;28;20555;-75
2021/07/27 02:00:57;;;;;;;11.90;8.15;;;;;;;;;;5056429;28;20025;-75
2021/07/27 02:03:26;;;;;;;11.75;7.82;;;;;;;;;;5047383;28;20083;-76
2021/07/27 02:05:52;;;;;;;13.90;8.32;;;;;;;;;;5036465;28;20097;-76
2021/07/27 02:08:18;;;;;;;12.43;8.32;;;;;;;;;;5018755;28;20022;-74
2021/07/27 02:10:48;;;;;;;10.45;7.57;;;;;;;;;;5036078;28;20041;-75
2021/07/27 02:13:24;;;;;;;11.98;7.40;;;;;;;;;;5036445;28;20095;-75
2021/07/27 02:15:50;;;;;;;13.48;7.72;;;;;;;;;;5018308;28;20032;-75
2021/07/27 02:18:16;;;;;;;11.57;8.50;;;;;;;;;;5036291;28;20394;-75
2021/07/27 02:20:45;;;;;;;11.93;7.90;;;;;;;;;;5036304;28;20029;-73
2021/07/27 02:23:11;;;;;;;12.82;8.52;;;;;;;;;;5036248;28;20057;-75
2021/07/27 02:25:37;;;;;;;12.43;8.02;;;;;;;;;;5035861;28;20030;-74
2021/07/27 02:28:04;;;;;;;11.75;8.88;;;;;;;;;;5036106;28;20025;-74
2021/07/27 02:30:33;;;;;;;11.93;8.20;;;;;;;;;;5036209;28;20033;-76
2021/07/27 02:32:59;;;;;;;14.80;7.82;;;;;;;;;;5036031;28;20021;-74
2021/07/27 02:35:30;;;;;;;12.43;7.85;;;;;;;;;;5035955;28;20052;-76
2021/07/27 02:37:56;;;;;;;11.13;8.40;;;;;;;;;;5035705;28;20025;-77
2021/07/27 02:40:22;;;;;;;11.75;8.15;;;;;;;;;;5035862;28;20034;-78
2021/07/27 02:42:48;;;;;;;10.95;7.88;;;;;;;;;;5035794;28;20033;-74
2021/07/27 02:45:14;;;;;;;11.00;7.57;;;;;;;;;;5035797;28;20040;-77
2021/07/27 02:47:41;;;;;;;14.48;8.27;;;;;;;;;;5035244;28;20105;-76
2021/07/27 02:50:08;;;;;;;11.43;8.50;;;;;;;;;;5035376;28;20026;-74
2021/07/27 02:52:34;;;;;;;13.65;9.23;;;;;;;;;;5035635;28;20021;-73
2021/07/27 02:55:00;;;;;;;11.80;8.50;;;;;;;;;;5035549;28;20030;-74
2021/07/27 02:57:26;;;;;;;12.85;8.02;;;;;;;;;;5035739;28;20386;-74
2021/07/27 02:59:52;;;;;;;13.02;7.97;;;;;;;;;;5035517;28;20041;-76
2021/07/27 03:02:24;;;;;;;11.80;8.52;;;;;;;;;;5035227;28;20048;-76
2021/07/27 03:04:50;;;;;;;12.85;8.52;;;;;;;;;;5055265;28;20108;-74
2021/07/27 03:07:20;;;;;;;13.23;9.57;;;;;;;;;;5055339;28;20100;-76
2021/07/27 03:10:17;;;;;;;13.23;8.32;;;;;;;;;;5055121;28;20485;-74
2021/07/27 03:12:40;;;;;;;13.93;8.52;;;;;;;;;;5054892;28;20485;-75
2021/07/27 03:15:07;;;;;;;13.48;9.25;;;;;;;;;;5054920;28;20078;-75
2021/07/27 03:17:33;;;;;;;12.35;8.55;;;;;;;;;;5055146;28;20032;-75
2021/07/27 03:19:59;;;;;;;12.63;8.90;;;;;;;;;;5055147;28;20107;-74
2021/07/27 03:22:25;;;;;;;13.07;8.43;;;;;;;;;;5055046;28;20053;-76
2021/07/27 03:24:51;;;;;;;15.82;9.30;;;;;;;;;;5054761;28;20562;-74
2021/07/27 03:27:17;;;;;;;15.45;9.15;;;;;;;;;;5054970;28;20096;-77
2021/07/27 03:29:43;;;;;;;13.57;8.52;;;;;;;;;;5055046;28;20047;-75
2021/07/27 03:32:09;;;;;;;11.30;7.50;;;;;;;;;;5054921;28;20017;-75
2021/07/27 03:34:35;;;;;;;12.43;8.60;;;;;;;;;;5054852;28;20024;-74
2021/07/27 03:37:01;;;;;;;13.70;9.27;;;;;;;;;;5054722;28;20105;-74
2021/07/27 03:39:27;;;;;;;14.10;8.68;;;;;;;;;;5054780;28;20061;-76
2021/07/27 03:41:53;;;;;;;14.07;9.07;;;;;;;;;;5054719;28;20071;-77
2021/07/27 03:44:20;;;;;;;12.32;8.73;;;;;;;;;;5054698;28;20031;-74
2021/07/27 03:46:46;;;;;;;13.27;9.77;;;;;;;;;;5054511;28;20032;-75
2021/07/27 03:49:12;;;;;;;13.90;9.77;;;;;;;;;;5054466;28;20033;-77
2021/07/27 03:51:38;;;;;;;23.77;10.07;;;;;;;;;;5054514;28;20049;-77
2021/07/27 03:54:04;;;;;;;13.68;9.73;;;;;;;;;;5054563;28;20087;-76
2021/07/27 03:56:31;;;;;;;14.18;10.02;;;;;;;;;;5054454;28;20385;-74
2021/07/27 03:58:57;;;;;;;14.75;10.55;;;;;;;;;;5053554;28;20074;-73
2021/07/27 04:01:23;;;;;;;14.50;9.05;;;;;;;;;;5054097;28;20498;-77
2021/07/27 04:03:50;;;;;;;13.95;9.57;;;;;;;;;;5041424;28;20034;-73
2021/07/27 04:06:16;;;;;;;16.10;10.45;;;;;;;;;;5034219;28;20022;-74
2021/07/27 04:08:42;;;;;;;11.82;9.02;;;;;;;;;;5034082;28;20025;-74
2021/07/27 04:11:08;;;;;;;12.02;8.63;;;;;;;;;;5034252;28;20363;-76
2021/07/27 04:13:34;;;;;;;13.50;8.75;;;;;;;;;;5033953;28;20029;-75
2021/07/27 04:16:01;;;;;;;16.20;9.30;;;;;;;;;;5034125;28;20500;-77
2021/07/27 04:18:27;;;;;;;12.88;8.15;;;;;;;;;;5016501;28;20113;-74
2021/07/27 04:21:03;;;;;;;11.88;8.40;;;;;;;;;;5034089;28;20056;-76
2021/07/27 04:23:29;;;;;;;14.25;9.85;;;;;;;;;;5033921;28;20390;-78
2021/07/27 04:25:55;;;;;;;14.07;9.32;;;;;;;;;;5033576;28;20116;-73
2021/07/27 04:28:21;;;;;;;14.77;9.35;;;;;;;;;;5033861;28;20057;-78
2021/07/27 04:30:47;;;;;;;12.82;9.55;;;;;;;;;;5033792;28;20534;-74
2021/07/27 04:33:13;;;;;;;14.75;9.35;;;;;;;;;;5033804;28;20101;-77
2021/07/27 04:35:39;;;;;;;15.52;10.57;;;;;;;;;;5033715;28;20037;-75
2021/07/27 04:38:06;;;;;;;13.32;9.52;;;;;;;;;;5033418;28;20119;-76
2021/07/27 04:40:32;;;;;;;12.32;9.05;;;;;;;;;;5033635;28;20025;-76
2021/07/27 04:42:59;;;;;;;14.65;10.18;;;;;;;;;;5033741;28;20386;-76
2021/07/27 04:45:27;;;;;;;12.60;8.68;;;;;;;;;;5033522;28;20026;-74
2021/07/27 04:47:54;;;;;;;13.18;9.82;;;;;;;;;;5033576;28;20021;-75
2021/07/27 04:50:20;;;;;;;11.38;9.30;;;;;;;;;;5033249;28;20028;-76
2021/07/27 04:52:52;;;;;;;13.80;9.07;;;;;;;;;;5033468;28;20029;-77
2021/07/27 04:55:18;;;;;;;12.13;8.57;;;;;;;;;;5015697;28;20083;-75
2021/07/27 04:57:44;;;;;;;15.07;9.10;;;;;;;;;;5033412;28;20029;-75
2021/07/27 05:00:16;;;;;;;12.15;8.63;;;;;;;;;;5033351;28;20037;-75
2021/07/27 05:02:42;;;;;;;11.52;8.82;;;;;;;;;;5036772;28;20017;-77
2021/07/27 05:05:08;;;;;;;12.50;8.95;;;;;;;;;;5035299;28;20508;-75
2021/07/27 05:07:34;;;;;;;12.35;8.88;;;;;;;;;;5053228;28;20093;-76
2021/07/27 05:10:01;;;;;;;12.15;7.72;;;;;;;;;;5052886;28;20076;-78
2021/07/27 05:12:27;;;;;;;13.55;8.60;;;;;;;;;;5053102;28;20452;-77
2021/07/27 05:14:53;;;;;;;11.18;8.85;;;;;;;;;;5052907;28;20032;-74
2021/07/27 05:17:19;;;;;;;12.30;8.80;;;;;;;;;;5053093;28;20025;-77
2021/07/27 05:19:49;;;;;;;12.20;7.80;;;;;;;;;;5053153;28;20088;-74
2021/07/27 05:22:15;;;;;;;12.43;8.85;;;;;;;;;;5053108;28;20551;-75
2021/07/27 05:24:41;;;;;;;12.50;8.52;;;;;;;;;;5053042;28;20025;-73
2021/07/27 05:27:07;;;;;;;15.02;8.18;;;;;;;;;;5052721;28;20109;-77
2021/07/27 05:29:33;;;;;;;11.93;8.25;;;;;;;;;;5052978;28;20032;-74
2021/07/27 05:31:59;;;;;;;13.40;8.45;;;;;;;;;;5053075;28;20017;-75
2021/07/27 05:34:25;;;;;;;12.77;10.05;;;;;;;;;;5052996;28;20029;-76
2021/07/27 05:36:51;;;;;;;13.02;8.70;;;;;;;;;;5053101;28;20116;-75
2021/07/27 05:39:17;;;;;;;10.18;7.80;;;;;;;;;;5052634;28;20029;-77
2021/07/27 05:41:43;;;;;;;11.75;8.18;;;;;;;;;;5052853;28;20100;-74
2021/07/27 05:44:09;;;;;;;10.80;8.82;;;;;;;;;;5052848;28;20396;-77
2021/07/27 05:46:35;;;;;;;13.20;8.57;;;;;;;;;;5052845;28;20033;-75
2021/07/27 05:49:03;;;;;;;11.02;7.95;;;;;;;;;;5052649;28;20411;-76
2021/07/27 05:51:29;;;;;;;11.57;9.00;;;;;;;;;;5052869;28;20017;-75
2021/07/27 05:53:55;;;;;;;12.85;9.45;;;;;;;;;;5052742;28;20025;-77
2021/07/27 05:56:21;;;;;;;11.90;8.95;;;;;;;;;;5052779;28;20032;-76
2021/07/27 05:58:47;;;;;;;13.07;8.75;;;;;;;;;;5052794;28;20493;-75
2021/07/27 06:01:13;;;;;;;11.50;8.85;;;;;;;;;;5052524;28;20104;-76
2021/07/27 06:03:39;;;;;;;12.32;9.25;;;;;;;;;;5041260;28;20041;-77
2021/07/27 06:06:05;;;;;;;12.98;8.30;;;;;;;;;;5032697;28;20026;-76
2021/07/27 06:08:31;;;;;;;15.13;8.57;;;;;;;;;;5032715;28;20029;-76
2021/07/27 06:10:57;;;;;;;12.68;8.90;;;;;;;;;;5032572;28;20037;-74
2021/07/27 06:13:23;;;;;;;12.90;9.38;;;;;;;;;;5032459;28;20057;-76
2021/07/27 06:15:49;;;;;;;12.63;8.40;;;;;;;;;;5032635;28;20460;-76
2021/07/27 06:18:15;;;;;;;11.82;9.20;;;;;;;;;;5032582;28;20100;-76
2021/07/27 06:20:41;;;;;;;13.60;9.02;;;;;;;;;;5032642;28;20026;-74
2021/07/27 06:23:07;;;;;;;14.38;9.68;;;;;;;;;;5035823;28;20104;-73
2021/07/27 06:25:33;;;;;;;16.50;9.70;;;;;;;;;;5035921;28;20554;-74
2021/07/27 06:27:59;;;;;;;15.05;9.13;;;;;;;;;;5036222;28;20037;-78
2021/07/27 06:30:25;;;;;;;14.38;10.30;;;;;;;;;;5036112;28;20021;-74
2021/07/27 06:32:51;;;;;;;13.48;9.27;;;;;;;;;;5036037;28;20453;-76
2021/07/27 06:35:17;;;;;;;14.68;9.75;;;;;;;;;;5035978;28;20104;-74
2021/07/27 06:37:43;;;;;;;12.98;9.20;;;;;;;;;;5035745;28;20033;-74
2021/07/27 06:40:10;;;;;;;12.43;9.15;;;;;;;;;;5036016;28;20041;-78
2021/07/27 06:42:36;;;;;;;11.95;8.52;;;;;;;;;;5035873;28;20064;-77
2021/07/27 06:45:02;;;;;;;11.93;8.25;;;;;;;;;;5035729;28;20032;-73
2021/07/27 06:47:28;;;;;;;10.35;7.25;;;;;;;;;;5035928;28;20025;-76
2021/07/27 06:49:54;;;;;;;11.63;8.63;;;;;;;;;;5035570;28;20025;-76
2021/07/27 06:52:21;;;;;;;10.52;7.72;;;;;;;;;;5035700;28;20029;-77
2021/07/27 06:54:47;;;;;;;10.80;7.20;;;;;;;;;;5035610;28;20014;-76
2021/07/27 06:57:13;;;;;;;10.32;8.02;;;;;;;;;;5035628;28;20100;-74
2021/07/27 06:59:39;;;;;;;10.73;7.40;;;;;;;;;;5035610;28;20052;-76
2021/07/27 07:02:05;;;;;;;13.23;7.82;;;;;;;;;;5035272;28;20105;-77
2021/07/27 07:04:31;;;;;;;9.90;7.30;;;;;;;;;;5053528;28;20025;-74
2021/07/27 07:06:57;;;;;;;12.82;7.65;;;;;;;;;;5055332;28;20028;-74
2021/07/27 07:09:24;;;;;;;10.65;7.32;;;;;;;;;;5055492;28;20124;-75
2021/07/27 07:11:50;;;;;;;11.88;7.95;;;;;;;;;;5055292;28;20071;-73
2021/07/27 07:14:17;;;;;;;10.68;7.18;;;;;;;;;;5054947;28;20489;-76
2021/07/27 07:16:43;;;;;;;11.23;7.65;;;;;;;;;;5055266;28;20024;-77
2021/07/27 07:19:09;;;;;;;8.90;6.60;;;;;;;;;;5055222;28;20047;-74
2021/07/27 07:21:35;;;;;;;9.80;6.55;;;;;;;;;;5036879;28;20029;-77
2021/07/27 07:24:01;;;;;;;10.43;7.18;;;;;;;;;;5055859;28;20029;-82
2021/07/27 07:26:27;;;;;;;9.23;6.70;;;;;;;;;;5054732;28;20025;-77
2021/07/27 07:28:53;;;;;;;9.57;6.63;;;;;;;;;;5055375;28;20028;-75
2021/07/27 07:31:20;;;;;;;9.95;6.72;;;;;;;;;;5055674;28;20392;-77
2021/07/27 07:33:46;;;;;;;10.18;6.72;;;;;;;;;;5054249;28;20019;-74
2021/07/27 07:36:13;;;;;;;9.13;6.45;;;;;;;;;;5055401;28;20052;-76
2021/07/27 07:38:39;;;;;;;10.43;6.53;;;;;;;;;;5055358;28;20385;-76
2021/07/27 07:41:06;;;;;;;12.98;6.70;;;;;;;;;;5055276;28;20465;-74
2021/07/27 07:43:32;;;;;;;10.02;7.00;;;;;;;;;;5055416;28;20040;-74
2021/07/27 07:45:58;;;;;;;11.05;6.80;;;;;;;;;;5055066;28;20029;-75
2021/07/27 07:48:24;;;;;;;9.73;6.88;;;;;;;;;;5055243;28;20021;-73
2021/07/27 07:50:50;;;;;;;11.13;7.75;;;;;;;;;;5054403;28;20057;-77
2021/07/27 07:53:16;;;;;;;10.52;6.25;;;;;;;;;;5054888;28;20017;-77
2021/07/27 07:55:42;;;;;;;7.10;4.43;;;;;;;;;;5054995;28;20051;-74
2021/07/27 07:58:08;;;;;;;7.63;4.22;;;;;;;;;;5054797;28;20032;-76
2021/07/27 08:00:34;;;;;;;6.18;4.15;;;;;;;;;;5054819;28;20040;-76
2021/07/27 08:03:03;;;;;;;7.43;3.95;;;;;;;;;;5048566;28;20429;-75
2021/07/27 08:05:29;;;;;;;5.68;3.92;;;;;;;;;;5035199;28;20177;-77
2021/07/27 08:07:55;;;;;;;6.43;3.60;;;;;;;;;;5034691;28;20386;-75
2021/07/27 08:10:22;;;;;;;6.03;3.45;;;;;;;;;;5034555;28;20081;-74
2021/07/27 08:12:48;;;;;;;5.07;3.20;;;;;;;;;;5034520;28;20031;-77
2021/07/27 08:15:17;;;;;;;7.25;4.00;;;;;;;;;;5034572;28;20559;-74
2021/07/27 08:17:43;;;;;;;4.57;3.28;;;;;;;;;;5034623;28;20397;-73
2021/07/27 08:20:10;;;;;;;5.10;3.60;;;;;;;;;;5034352;28;20045;-74
2021/07/27 08:22:43;;;;;;;6.07;3.17;;;;;;;;;;5034677;28;20362;-75
2021/07/27 08:25:16;;;;;;;6.72;3.40;;;;;;;;;;5034253;28;20501;-76
2021/07/27 08:27:45;;;;;;;5.00;3.20;;;;;;;;;;5034075;28;20101;-75
2021/07/27 08:30:13;;;;;;;5.88;3.20;;;;;;;;;;5026281;28;20394;-79
2021/07/27 08:32:44;;;;;;;7.55;3.42;;;;;;;;;;5053116;28;20060;-80
2021/07/27 08:35:10;;;;;;;6.47;3.85;;;;;;;;;;5045442;28;20074;-80
2021/07/27 08:37:36;;;;;;;4.28;3.03;;;;;;;;;;5053586;28;20591;-77
2021/07/27 08:40:03;;;;;;;5.95;3.47;;;;;;;;;;5053531;28;20033;-74
2021/07/27 08:42:29;;;;;;;5.53;3.63;;;;;;;;;;5066697;28;20388;-80
2021/07/27 08:44:58;;;;;;;5.57;3.28;;;;;;;;;;5073584;28;20157;-78
2021/07/27 08:47:24;;;;;;;6.03;3.13;;;;;;;;;;5033937;28;20029;-77
2021/07/27 08:49:51;;;;;;;4.97;2.97;;;;;;;;;;5036129;28;20033;-75
2021/07/27 08:52:17;;;;;;;4.20;2.90;;;;;;;;;;5054134;28;20024;-74
2021/07/27 08:54:43;;;;;;;4.57;2.97;;;;;;;;;;5053434;28;20402;-76
2021/07/27 08:57:14;;;;;;;6.50;3.08;;;;;;;;;;5053841;28;20029;-76
2021/07/27 09:00:14;;;;;;;4.57;3.35;;;;;;;;;;5053458;28;20032;-76
2021/07/27 09:02:40;;;;;;;4.32;2.75;;;;;;;;;;5050325;28;20528;-75
2021/07/27 09:05:07;;;;;;;4.90;3.17;;;;;;;;;;5053802;28;20025;-76
2021/07/27 09:07:33;;;;;;;5.00;3.30;;;;;;;;;;5052617;28;20546;-78
2021/07/27 09:09:59;;;;;;;4.70;3.45;;;;;;;;;;5052555;28;20041;-80
2021/07/27 09:12:25;;;;;;;6.45;3.05;;;;;;;;;;5053691;28;20023;-77
2021/07/27 09:14:51;;;;;;;6.13;2.92;;;;;;;;;;5053846;28;20109;-79
2021/07/27 09:17:24;;;;;;;4.47;3.20;;;;;;;;;;5053452;28;20509;-81
2021/07/27 09:19:50;;;;;;;5.07;3.33;;;;;;;;;;5045317;28;20028;-79
2021/07/27 09:22:16;;;;;;;4.88;3.00;;;;;;;;;;5033241;28;20025;-79
2021/07/27 09:24:42;;;;;;;4.75;3.10;;;;;;;;;;5033536;28;20421;-79
2021/07/27 09:27:08;;;;;;;4.93;3.10;;;;;;;;;;5033341;28;20029;-78
2021/07/27 09:29:45;;;;;;;5.28;3.30;;;;;;;;;;5033375;28;20017;-80
2021/07/27 09:32:18;;;;;;;4.72;3.30;;;;;;;;;;5046013;28;20449;-83
2021/07/27 09:34:44;;;;;;;4.40;3.15;;;;;;;;;;5052876;28;20056;-78
2021/07/27 09:37:10;;;;;;;6.85;3.42;;;;;;;;;;5053289;28;20029;-80
2021/07/27 09:39:37;;;;;;;5.68;3.28;;;;;;;;;;5053366;28;20089;-77
2021/07/27 09:42:04;;;;;;;5.03;3.05;;;;;;;;;;5053177;28;20025;-82
2021/07/27 09:44:31;;;;;;;4.85;3.17;;;;;;;;;;5053091;28;20033;-76
2021/07/27 09:46:58;;;;;;;5.70;3.33;;;;;;;;;;5052353;28;20033;-74
2021/07/27 09:49:24;;;;;;;5.72;3.72;;;;;;;;;;5052782;28;20159;-74
2021/07/27 09:51:50;;;;;;;6.40;4.38;;;;;;;;;;5051310;28;20071;-73
2021/07/27 09:54:18;;;;;;;7.75;4.32;;;;;;;;;;5049571;28;20025;-77
2021/07/27 09:56:45;;;;;;;6.88;4.50;;;;;;;;;;5053691;28;20103;-77
2021/07/27 09:59:11;;;;;;;7.55;4.72;;;;;;;;;;5056527;28;20021;-74
2021/07/27 10:01:38;;;;;;;8.07;4.97;;;;;;;;;;5056861;28;20374;-75
2021/07/27 10:04:04;;;;;;;5.30;4.30;;;;;;;;;;5042420;28;20025;-76
2021/07/27 10:06:31;;;;;;;6.18;4.13;;;;;;;;;;5036902;28;20029;-78
2021/07/27 10:08:58;;;;;;;4.88;3.92;;;;;;;;;;5046648;28;20072;-74
2021/07/27 10:11:54;;;;;;;6.63;4.32;;;;;;;;;;5056925;28;20021;-73
2021/07/27 10:14:20;;;;;;;6.72;4.15;;;;;;;;;;5047585;28;20037;-74
2021/07/27 10:16:46;;;;;;;5.22;3.60;;;;;;;;;;5057093;28;20437;-75
2021/07/27 10:19:12;;;;;;;6.47;3.47;;;;;;;;;;5056947;28;20068;-76
2021/07/27 10:21:38;;;;;;;7.22;3.85;;;;;;;;;;5057064;28;20052;-78
2021/07/27 10:24:12;;;;;;;5.45;3.38;;;;;;;;;;5056728;28;20029;-78
2021/07/27 10:26:38;;;;;;;6.10;3.47;;;;;;;;;;5056578;28;20028;-78
2021/07/27 10:29:05;;;;;;;7.00;3.40;;;;;;;;;;5039896;28;20071;-75
2021/07/27 10:31:32;;;;;;;4.30;2.80;;;;;;;;;;5036564;28;20470;-76
2021/07/27 10:34:00;;;;;;;6.63;2.80;;;;;;;;;;5035677;28;20131;-76
2021/07/27 10:36:34;;;;;;;4.35;2.97;;;;;;;;;;5015044;28;20033;-74
2021/07/27 10:39:19;;;;;;;5.35;3.20;;;;;;;;;;5034231;28;20497;-75
2021/07/27 10:41:45;;;;;;;6.10;3.38;;;;;;;;;;5035201;28;20060;-76
2021/07/27 10:44:14;;;;;;;5.82;3.28;;;;;;;;;;5034657;28;20029;-75
2021/07/27 10:46:42;;;;;;;6.35;3.42;;;;;;;;;;5034604;28;20028;-76
2021/07/27 10:49:22;;;;;;;3.97;2.78;;;;;;;;;;5034471;28;20053;-74
2021/07/27 10:51:49;;;;;;;6.90;2.88;;;;;;;;;;5035479;28;20017;-74
2021/07/27 10:54:15;;;;;;;7.13;3.20;;;;;;;;;;5034789;28;20026;-77
2021/07/27 10:56:47;;;;;;;5.18;3.50;;;;;;;;;;5034551;28;20028;-76
2021/07/27 10:59:18;;;;;;;6.93;3.00;;;;;;;;;;5034618;28;20030;-74
2021/07/27 11:01:44;;;;;;;4.70;3.20;;;;;;;;;;5035214;28;20026;-75
2021/07/27 11:04:11;;;;;;;4.57;3.08;;;;;;;;;;5049853;28;20032;-76
2021/07/27 11:06:38;;;;;;;4.53;3.10;;;;;;;;;;5054246;28;20029;-75
2021/07/27 11:09:05;;;;;;;5.85;3.33;;;;;;;;;;5053843;28;20045;-75
2021/07/27 11:11:31;;;;;;;5.63;3.70;;;;;;;;;;5054910;28;20099;-75
2021/07/27 11:13:57;;;;;;;6.50;3.38;;;;;;;;;;5053972;28;20035;-75
2021/07/27 11:16:23;;;;;;;5.32;3.38;;;;;;;;;;5054245;28;20024;-74
2021/07/27 11:18:50;;;;;;;5.10;3.10;;;;;;;;;;5054657;28;20037;-75
2021/07/27 11:21:18;;;;;;;5.32;3.80;;;;;;;;;;5054553;28;20048;-77
2021/07/27 11:23:45;;;;;;;5.18;3.15;;;;;;;;;;5054006;28;20029;-74
2021/07/27 11:26:11;;;;;;;6.70;3.60;;;;;;;;;;5054013;28;20032;-76
2021/07/27 11:28:38;;;;;;;5.50;3.60;;;;;;;;;;5054378;28;20021;-76
2021/07/27 11:31:16;;;;;;;5.82;3.30;;;;;;;;;;5054510;28;20345;-75
2021/07/27 11:33:49;;;;;;;4.10;3.25;;;;;;;;;;5053940;28;20025;-76
2021/07/27 11:36:20;;;;;;;4.53;3.30;;;;;;;;;;5054148;28;20029;-74
2021/07/27 11:38:46;;;;;;;5.05;3.45;;;;;;;;;;5053939;28;20085;-75
2021/07/27 11:41:14;;;;;;;6.55;3.33;;;;;;;;;;5054500;28;20028;-72
2021/07/27 11:43:41;;;;;;;4.78;3.47;;;;;;;;;;5054042;28;20036;-76
2021/07/27 11:46:16;;;;;;;3.92;2.92;;;;;;;;;;5053797;28;20017;-74
2021/07/27 11:48:42;;;;;;;6.03;3.38;;;;;;;;;;5054056;28;20163;-75
2021/07/27 11:51:08;;;;;;;4.78;3.00;;;;;;;;;;5054227;28;20070;-76
2021/07/27 11:53:40;;;;;;;6.70;3.30;;;;;;;;;;5053767;28;20439;-75
2021/07/27 11:56:13;;;;;;;3.90;3.05;;;;;;;;;;5053488;28;20025;-77
2021/07/27 11:58:40;;;;;;;4.95;2.67;;;;;;;;;;5053274;28;20040;-75
2021/07/27 12:01:06;;;;;;;3.85;2.95;;;;;;;;;;5053928;28;20523;-76
2021/07/27 12:03:32;;;;;;;5.78;3.08;;;;;;;;;;5043301;28;20033;-74
2021/07/27 12:05:58;;;;;;;6.15;2.60;;;;;;;;;;5033258;28;20025;-74
2021/07/27 12:08:24;;;;;;;3.35;2.60;;;;;;;;;;5033205;28;20030;-77
2021/07/27 12:10:51;;;;;;;3.72;2.55;;;;;;;;;;5033301;28;20077;-76
2021/07/27 12:13:17;;;;;;;3.55;2.72;;;;;;;;;;5033510;28;20449;-75
2021/07/27 12:15:45;;;;;;;4.78;2.45;;;;;;;;;;5033200;28;20028;-77
2021/07/27 12:18:11;;;;;;;3.88;2.70;;;;;;;;;;5032977;28;20025;-74
2021/07/27 12:20:37;;;;;;;5.93;2.83;;;;;;;;;;5032799;28;20032;-75
2021/07/27 12:23:03;;;;;;;4.13;2.80;;;;;;;;;;5033356;28;20033;-77
2021/07/27 12:25:29;;;;;;;5.93;3.20;;;;;;;;;;5015049;28;20403;-75
2021/07/27 12:27:55;;;;;;;5.13;2.67;;;;;;;;;;5032842;28;20048;-75
2021/07/27 12:30:21;;;;;;;4.07;2.40;;;;;;;;;;5033199;28;20029;-76
2021/07/27 12:32:47;;;;;;;4.05;2.42;;;;;;;;;;5033287;28;20100;-75
2021/07/27 12:35:13;;;;;;;3.65;2.28;;;;;;;;;;5032803;28;20060;-74
2021/07/27 12:37:39;;;;;;;5.10;2.28;;;;;;;;;;5032535;28;20548;-74
2021/07/27 12:40:06;;;;;;;5.63;2.58;;;;;;;;;;5032890;28;20057;-74
2021/07/27 12:42:32;;;;;;;3.90;2.15;;;;;;;;;;5033125;28;20322;-76
2021/07/27 12:44:58;;;;;;;5.55;2.55;;;;;;;;;;5032484;28;20025;-76
2021/07/27 12:47:24;;;;;;;3.25;2.28;;;;;;;;;;5032349;28;20026;-76
2021/07/27 12:49:51;;;;;;;4.97;2.22;;;;;;;;;;5032504;28;20490;-78
2021/07/27 12:52:17;;;;;;;3.50;2.42;;;;;;;;;;5015194;28;20025;-76
2021/07/27 12:54:43;;;;;;;3.72;2.33;;;;;;;;;;5032353;28;20024;-75
2021/07/27 12:57:13;;;;;;;3.13;2.10;;;;;;;;;;5032340;28;20113;-75
2021/07/27 12:59:41;;;;;;;3.70;2.10;;;;;;;;;;5032827;28;20100;-76
2021/07/27 13:02:08;;;;;;;3.22;2.08;;;;;;;;;;5032537;28;20025;-74
2021/07/27 13:04:34;;;;;;;3.95;2.38;;;;;;;;;;5050662;28;20099;-77
2021/07/27 13:07:00;;;;;;;4.32;2.83;;;;;;;;;;5052036;28;20033;-74
2021/07/27 13:09:26;;;;;;;4.25;2.40;;;;;;;;;;5052498;28;20409;-76
2021/07/27 13:11:52;;;;;;;2.72;1.98;;;;;;;;;;5052568;28;20025;-75
2021/07/27 13:14:18;;;;;;;2.83;1.92;;;;;;;;;;5051857;28;20052;-74
2021/07/27 13:16:44;;;;;;;3.00;1.98;;;;;;;;;;5052024;28;20025;-77
2021/07/27 13:19:10;;;;;;;2.40;1.90;;;;;;;;;;5052518;28;20033;-76
2021/07/27 13:21:37;;;;;;;3.30;2.50;;;;;;;;;;5052729;28;20035;-75
2021/07/27 13:24:04;;;;;;;5.53;2.70;;;;;;;;;;5034473;28;20420;-77
2021/07/27 13:26:34;;;;;;;5.55;2.75;;;;;;;;;;5051812;28;20029;-76
2021/07/27 13:29:00;;;;;;;;;;;;;;;;;;5053115;28;20374;-75
2021/07/27 13:31:26;;;;;;;7.07;3.80;;;;;;;;;;5055081;28;19960;-76
2021/07/27 13:33:52;;;;;;;8.65;3.95;;;;;;;;;;5056406;28;20487;-73
2021/07/27 13:36:18;;;;;;;4.75;3.10;;;;;;;;;;5056187;28;20047;-75
2021/07/27 13:38:44;;;;;;;5.63;3.38;;;;;;;;;;5056230;28;20029;-75
2021/07/27 13:41:10;;;;;;;5.10;3.47;;;;;;;;;;5056504;28;20040;-74
2021/07/27 13:43:36;;;;;;;6.57;3.45;;;;;;;;;;5056239;28;20025;-74
2021/07/27 13:46:02;;;;;;;5.43;3.50;;;;;;;;;;5056014;28;20082;-76
2021/07/27 13:48:28;;;;;;;6.07;3.72;;;;;;;;;;5056079;28;20053;-74
2021/07/27 13:50:54;;;;;;;5.82;3.42;;;;;;;;;;5056025;28;20049;-76
2021/07/27 13:53:20;;;;;;;5.43;3.30;;;;;;;;;;5056316;28;20084;-76
2021/07/27 13:55:47;;;;;;;5.88;3.25;;;;;;;;;;5055691;28;20116;-77
2021/07/27 13:58:14;;;;;;;3.65;2.83;;;;;;;;;;5055874;28;20477;-76
2021/07/27 14:00:40;;;;;;;4.68;3.22;;;;;;;;;;5055994;28;20444;-75
2021/07/27 14:03:06;;;;;;;5.25;3.03;;;;;;;;;;5049118;28;20025;-77
2021/07/27 14:05:32;;;;;;;4.35;2.90;;;;;;;;;;5035732;28;20055;-74
2021/07/27 14:07:58;;;;;;;3.70;2.75;;;;;;;;;;5035730;28;20021;-77
2021/07/27 14:10:24;;;;;;;5.45;2.88;;;;;;;;;;5037387;28;20049;-75
2021/07/27 14:12:50;;;;;;;5.43;2.80;;;;;;;;;;5035969;28;20026;-74
2021/07/27 14:15:16;;;;;;;3.58;2.42;;;;;;;;;;5035502;28;20026;-75
2021/07/27 14:17:44;;;;;;;4.13;2.33;;;;;;;;;;5035487;28;20030;-77
2021/07/27 14:20:10;;;;;;;3.03;2.28;;;;;;;;;;5035529;28;20025;-74
2021/07/27 14:22:37;;;;;;;4.25;2.50;;;;;;;;;;5035715;28;20437;-77
2021/07/27 14:25:04;;;;;;;2.65;2.05;;;;;;;;;;5035346;28;20052;-78
2021/07/27 14:27:30;;;;;;;5.72;2.70;;;;;;;;;;5035347;28;20031;-76
2021/07/27 14:29:57;;;;;;;4.47;2.30;;;;;;;;;;5035586;28;20026;-75
2021/07/27 14:32:23;;;;;;;2.60;2.10;;;;;;;;;;5017967;28;20035;-75
2021/07/27 14:34:49;;;;;;;2.50;2.10;;;;;;;;;;5035213;28;20398;-77
2021/07/27 14:37:15;;;;;;;2.55;2.10;;;;;;;;;;5035059;28;20021;-76
2021/07/27 14:39:41;;;;;;;2.42;1.60;;;;;;;;;;5035271;28;20087;-78
2021/07/27 14:42:07;;;;;;;4.78;2.03;;;;;;;;;;5034972;28;20104;-75
2021/07/27 14:44:33;;;;;;;3.58;1.92;;;;;;;;;;5035057;28;20040;-73
2021/07/27 14:46:59;;;;;;;5.07;2.05;;;;;;;;;;5034889;28;20028;-73
2021/07/27 14:49:25;;;;;;;6.43;2.03;;;;;;;;;;5034728;28;20025;-76
2021/07/27 14:51:51;;;;;;;6.47;1.80;;;;;;;;;;5035379;28;20100;-76